Time;durP1;ratioP1;P1;durP2;ratioP2;P2;SDS_P1;SDS_P2;PMS_P1;PMS_P2;Temp;Humidity;BMP_temperature;BMP_pressure;BME280_temperature;BME280_humidity;BME280_pressure;Samples;Min_cycle;Max_cycle;Signal;HPM_P1;HPM_P2
2023/03/24 00:00:20;;;;;;;1.95;1.75;;;16.00;99.90;;;;;;7393219;19;20158;-73
2023/03/24 00:02:47;;;;;;;4.03;1.52;;;15.70;99.90;;;;;;7393998;19;20142;-72
2023/03/24 00:05:22;;;;;;;1.95;1.50;;;15.40;99.90;;;;;;7391387;19;20199;-72
2023/03/24 00:07:49;;;;;;;3.70;1.77;;;15.50;99.90;;;;;;7393885;19;20188;-72
2023/03/24 00:10:19;;;;;;;5.45;4.25;;;15.60;99.90;;;;;;7391581;19;20548;-71
2023/03/24 00:12:45;;;;;;;6.18;3.58;;;15.80;99.90;;;;;;7392943;19;20166;-74
2023/03/24 00:15:15;;;;;;;11.73;2.83;;;15.80;99.90;;;;;;7392348;19;20142;-72
2023/03/24 00:17:41;;;;;;;11.80;5.30;;;15.60;99.90;;;;;;7392398;19;20142;-71
2023/03/24 00:20:13;;;;;;;7.85;3.00;;;15.70;99.90;;;;;;7391768;19;20155;-72
2023/03/24 00:22:49;;;;;;;14.38;2.42;;;15.50;99.90;;;;;;7391776;19;20154;-72
2023/03/24 00:25:22;;;;;;;10.93;2.53;;;15.60;99.90;;;;;;7389081;19;20646;-75
2023/03/24 00:27:50;;;;;;;5.65;2.20;;;15.60;99.90;;;;;;7393654;19;20596;-71
2023/03/24 00:30:18;;;;;;;6.18;2.10;;;15.60;99.90;;;;;;7392521;19;20564;-72
2023/03/24 00:32:45;;;;;;;5.10;1.98;;;15.70;99.90;;;;;;7393894;19;20142;-73
2023/03/24 00:35:15;;;;;;;5.97;1.55;;;15.80;99.90;;;;;;7390915;19;20135;-72
2023/03/24 00:37:43;;;;;;;2.38;1.75;;;15.80;99.90;;;;;;7389983;19;20154;-72
2023/03/24 00:40:16;;;;;;;3.33;1.40;;;15.80;99.90;;;;;;7390638;19;20230;-72
2023/03/24 00:42:44;;;;;;;2.33;1.45;;;15.70;99.90;;;;;;7390230;19;20149;-71
2023/03/24 00:45:12;;;;;;;2.42;1.75;;;15.50;99.90;;;;;;7391265;19;20138;-72
2023/03/24 00:47:38;;;;;;;2.85;1.42;;;15.50;99.90;;;;;;7393855;19;20134;-72
2023/03/24 00:50:14;;;;;;;3.05;1.95;;;15.40;99.90;;;;;;7389946;19;20157;-71
2023/03/24 00:52:42;;;;;;;4.85;1.95;;;15.50;99.90;;;;;;7389929;19;20615;-72
2023/03/24 00:55:14;;;;;;;3.63;1.75;;;15.40;99.90;;;;;;7392010;19;20167;-72
2023/03/24 00:57:48;;;;;;;6.60;1.35;;;15.20;99.90;;;;;;7389932;19;20226;-72
2023/03/24 01:00:18;;;;;;;3.10;1.27;;;15.20;99.90;;;;;;7390390;19;20163;-71
2023/03/24 01:02:52;;;;;;;1.80;1.38;;;15.20;99.90;;;;;;7390975;19;20161;-73
2023/03/24 01:05:19;;;;;;;4.38;1.70;;;15.00;99.90;;;;;;7387103;19;20154;-72
2023/03/24 01:07:50;;;;;;;1.85;1.50;;;15.00;99.90;;;;;;7390410;19;20153;-72
2023/03/24 01:10:18;;;;;;;2.80;1.50;;;15.10;99.90;;;;;;7390226;19;20139;-71
2023/03/24 01:12:44;;;;;;;4.82;1.67;;;14.90;99.90;;;;;;7387946;19;20147;-71
2023/03/24 01:15:16;;;;;;;4.82;2.08;;;14.60;99.90;;;;;;7390338;19;20485;-72
2023/03/24 01:17:42;;;;;;;4.15;1.67;;;14.50;99.90;;;;;;7390891;19;20150;-72
2023/03/24 01:20:10;;;;;;;4.15;1.80;;;14.80;99.90;;;;;;7383098;19;20163;-73
2023/03/24 01:22:38;;;;;;;3.95;1.88;;;14.70;99.90;;;;;;7381043;19;20452;-72
2023/03/24 01:25:08;;;;;;;8.63;2.35;;;14.60;99.90;;;;;;7386926;19;20191;-71
2023/03/24 01:27:35;;;;;;;5.20;1.90;;;14.50;99.90;;;;;;7389160;19;20510;-72
2023/03/24 01:30:03;;;;;;;2.85;1.88;;;14.60;99.90;;;;;;7389168;19;20155;-72
2023/03/24 01:32:29;;;;;;;3.28;1.30;;;14.80;99.90;;;;;;7389027;19;20154;-71
2023/03/24 01:34:55;;;;;;;3.20;1.70;;;15.00;99.90;;;;;;7389348;19;20154;-73
2023/03/24 01:37:22;;;;;;;3.17;1.83;;;15.00;99.90;;;;;;7389106;19;20159;-71
2023/03/24 01:39:49;;;;;;;1.92;1.45;;;14.70;99.90;;;;;;7388887;19;20127;-72
2023/03/24 01:42:22;;;;;;;1.88;1.50;;;14.40;99.90;;;;;;7386972;19;20145;-72
2023/03/24 01:44:50;;;;;;;2.45;1.80;;;14.60;99.90;;;;;;7388032;19;20151;-71
2023/03/24 01:47:17;;;;;;;2.28;1.50;;;14.50;99.90;;;;;;7389998;19;20135;-72
2023/03/24 01:49:46;;;;;;;2.42;1.70;;;14.50;99.90;;;;;;7389543;19;20627;-72
2023/03/24 01:52:27;;;;;;;2.55;1.60;;;14.70;99.90;;;;;;7388241;19;20498;-71
2023/03/24 01:55:17;;;;;;;2.83;1.40;;;14.80;99.90;;;;;;7388049;19;20146;-72
2023/03/24 01:57:48;;;;;;;1.88;1.27;;;14.90;99.90;;;;;;7389119;19;20146;-71
2023/03/24 02:00:17;;;;;;;1.65;1.38;;;14.90;99.90;;;;;;7388964;19;20262;-72
2023/03/24 02:02:53;;;;;;;2.20;1.70;;;15.00;99.90;;;;;;7390241;19;20142;-72
2023/03/24 02:05:24;;;;;;;3.40;1.40;;;15.10;99.90;;;;;;7385983;19;20158;-72
2023/03/24 02:08:06;;;;;;;2.83;1.65;;;15.20;99.90;;;;;;7388067;19;20139;-71
2023/03/24 02:10:35;;;;;;;3.90;1.55;;;15.20;99.90;;;;;;7387106;19;20143;-72
2023/03/24 02:13:02;;;;;;;1.80;1.50;;;15.10;99.90;;;;;;7387735;19;20166;-72
2023/03/24 02:15:30;;;;;;;2.50;1.52;;;15.10;99.90;;;;;;7388229;19;20154;-72
2023/03/24 02:18:08;;;;;;;2.22;1.45;;;15.00;99.90;;;;;;7388569;19;20580;-72
2023/03/24 02:21:05;;;;;;;4.75;1.55;;;15.10;99.90;;;;;;7388017;19;20177;-71
2023/03/24 02:24:03;;;;;;;3.35;1.40;;;15.20;99.90;;;;;;7387306;19;20135;-72
2023/03/24 02:26:38;;;;;;;2.00;1.35;;;15.20;99.90;;;;;;7381808;19;20138;-71
2023/03/24 02:29:36;;;;;;;2.63;1.38;;;15.20;99.90;;;;;;7388161;19;20150;-72
2023/03/24 02:32:47;;;;;;;2.22;1.27;;;15.20;99.90;;;;;;7385514;19;20142;-71
2023/03/24 02:35:15;;;;;;;1.75;1.20;;;15.20;99.90;;;;;;7385826;19;20587;-71
2023/03/24 02:38:08;;;;;;;3.13;1.52;;;15.20;99.90;;;;;;7386906;19;20151;-71
2023/03/24 02:41:01;;;;;;;1.65;1.27;;;15.20;99.90;;;;;;7386916;19;20548;-72
2023/03/24 02:43:39;;;;;;;2.38;1.40;;;15.10;99.90;;;;;;7386731;19;20146;-72
2023/03/24 02:46:22;;;;;;;3.58;1.27;;;15.20;99.90;;;;;;7385991;19;20158;-71
2023/03/24 02:49:16;;;;;;;4.75;1.20;;;15.20;99.90;;;;;;7386727;19;20150;-72
2023/03/24 02:52:09;;;;;;;1.33;1.20;;;15.10;99.90;;;;;;7386921;19;20154;-72
2023/03/24 02:55:00;;;;;;;1.63;1.20;;;15.20;99.90;;;;;;7391046;19;20139;-72
2023/03/24 02:57:36;;;;;;;3.08;1.20;;;15.10;99.90;;;;;;7389904;19;20153;-72
2023/03/24 03:00:33;;;;;;;2.50;1.25;;;15.20;99.90;;;;;;7388491;19;20130;-71
2023/03/24 03:03:08;;;;;;;3.90;1.30;;;15.20;99.90;;;;;;7386497;19;20605;-73
2023/03/24 03:05:52;;;;;;;1.50;1.02;;;15.20;99.90;;;;;;7385852;19;20635;-72
2023/03/24 03:08:20;;;;;;;2.15;1.30;;;15.20;99.90;;;;;;7388976;19;20179;-72
2023/03/24 03:10:49;;;;;;;1.15;1.02;;;15.40;99.90;;;;;;7386201;19;20510;-73
2023/03/24 03:13:35;;;;;;;2.63;1.30;;;15.50;99.90;;;;;;7388497;19;20606;-71
2023/03/24 03:16:08;;;;;;;8.13;1.70;;;15.50;99.90;;;;;;7389196;19;20163;-73
2023/03/24 03:18:48;;;;;;;1.77;1.10;;;15.50;99.90;;;;;;7385265;19;20566;-72
2023/03/24 03:21:18;;;;;;;3.42;1.38;;;15.50;99.90;;;;;;7387316;19;20155;-72
2023/03/24 03:23:55;;;;;;;4.18;1.50;;;15.60;99.90;;;;;;7384369;19;20160;-72
2023/03/24 03:26:25;;;;;;;1.83;1.13;;;15.60;99.90;;;;;;7387074;19;20154;-73
2023/03/24 03:28:56;;;;;;;3.78;1.70;;;15.60;99.90;;;;;;7387033;19;20139;-71
2023/03/24 03:31:35;;;;;;;1.15;0.82;;;15.50;99.90;;;;;;7382598;19;20142;-72
2023/03/24 03:34:17;;;;;;;2.30;1.30;;;15.50;99.90;;;;;;7384919;19;20501;-74
2023/03/24 03:36:57;;;;;;;2.38;1.20;;;15.50;99.90;;;;;;7384034;19;20159;-73
2023/03/24 03:39:29;;;;;;;3.72;1.48;;;15.50;99.90;;;;;;7383660;19;20165;-71
2023/03/24 03:41:55;;;;;;;1.42;1.00;;;15.40;99.90;;;;;;7380378;19;20218;-72
2023/03/24 03:44:21;;;;;;;2.97;1.52;;;15.40;99.90;;;;;;7383491;19;20795;-71
2023/03/24 03:46:50;;;;;;;1.35;1.00;;;15.50;99.90;;;;;;7386249;19;20130;-72
2023/03/24 03:49:16;;;;;;;1.42;1.10;;;15.50;99.90;;;;;;7386929;19;20479;-72
2023/03/24 03:51:42;;;;;;;1.45;1.00;;;15.40;99.90;;;;;;7386031;19;20154;-72
2023/03/24 03:54:11;;;;;;;2.17;1.15;;;15.50;99.90;;;;;;7383976;19;20562;-71
2023/03/24 03:56:38;;;;;;;1.15;1.00;;;15.50;99.90;;;;;;7385750;19;20154;-71
2023/03/24 03:59:05;;;;;;;1.15;1.02;;;15.50;99.90;;;;;;7385233;19;20154;-71
2023/03/24 04:01:35;;;;;;;1.33;1.10;;;15.50;99.90;;;;;;7387042;19;20149;-72
2023/03/24 04:04:10;;;;;;;1.58;1.10;;;15.50;99.90;;;;;;7383736;19;20258;-72
2023/03/24 04:06:49;;;;;;;4.30;1.10;;;15.50;99.90;;;;;;7386626;19;20171;-71
2023/03/24 04:09:36;;;;;;;1.95;1.40;;;15.50;99.90;;;;;;7387727;19;20162;-72
2023/03/24 04:12:44;;;;;;;2.13;1.10;;;15.50;99.90;;;;;;7383954;19;20146;-72
2023/03/24 04:15:33;;;;;;;1.90;1.23;;;15.50;99.90;;;;;;7384555;19;20634;-71
2023/03/24 04:18:28;;;;;;;1.42;1.23;;;15.50;99.90;;;;;;7384231;19;20180;-72
2023/03/24 04:20:53;;;;;;;1.55;1.20;;;15.40;99.90;;;;;;7384815;19;20143;-71
2023/03/24 04:23:29;;;;;;;1.48;1.10;;;15.40;99.90;;;;;;7384880;19;20231;-73
2023/03/24 04:26:49;;;;;;;2.30;1.33;;;15.40;99.90;;;;;;7384424;19;20145;-73
2023/03/24 04:29:45;;;;;;;1.73;1.00;;;15.40;99.90;;;;;;7381139;19;20135;-71
2023/03/24 04:32:48;;;;;;;2.00;1.10;;;15.40;99.90;;;;;;7388164;19;20250;-71
2023/03/24 04:35:30;;;;;;;3.38;1.00;;;15.40;99.90;;;;;;7388328;19;20150;-72
2023/03/24 04:38:08;;;;;;;1.45;0.98;;;15.50;99.90;;;;;;7391012;19;20126;-72
2023/03/24 04:40:40;;;;;;;1.20;1.10;;;15.50;99.90;;;;;;7392076;19;20135;-72
2023/03/24 04:43:09;;;;;;;1.77;1.10;;;15.50;99.90;;;;;;7392457;19;20145;-71
2023/03/24 04:45:35;;;;;;;1.65;1.23;;;15.50;99.90;;;;;;7390218;19;20146;-71
2023/03/24 04:48:03;;;;;;;2.58;1.30;;;15.60;99.90;;;;;;7389824;19;20126;-71
2023/03/24 04:50:36;;;;;;;1.80;1.00;;;15.60;99.90;;;;;;7392278;19;20143;-72
2023/03/24 04:53:04;;;;;;;1.33;1.10;;;15.60;99.90;;;;;;7391739;19;20154;-72
2023/03/24 04:55:48;;;;;;;1.67;1.10;;;15.70;99.90;;;;;;7391143;19;20151;-72
2023/03/24 04:58:17;;;;;;;1.80;1.30;;;15.70;99.90;;;;;;7392558;19;20149;-72
2023/03/24 05:00:43;;;;;;;1.80;1.20;;;15.70;99.90;;;;;;7388628;19;20158;-72
2023/03/24 05:03:14;;;;;;;1.83;0.93;;;15.80;99.90;;;;;;7390351;19;20477;-71
2023/03/24 05:05:44;;;;;;;2.35;1.15;;;15.80;99.90;;;;;;7388373;19;20814;-72
2023/03/24 05:08:10;;;;;;;1.30;1.17;;;15.80;99.90;;;;;;7391187;19;20142;-72
2023/03/24 05:10:37;;;;;;;3.05;1.73;;;15.70;99.90;;;;;;7389372;19;20559;-72
2023/03/24 05:13:04;;;;;;;1.50;1.10;;;15.90;99.90;;;;;;7391477;19;20142;-72
2023/03/24 05:15:29;;;;;;;0.82;0.70;;;15.90;99.90;;;;;;7390583;19;20238;-73
2023/03/24 05:17:56;;;;;;;1.05;0.93;;;15.90;99.90;;;;;;7390677;19;20595;-71
2023/03/24 05:20:22;;;;;;;1.10;0.80;;;15.90;99.90;;;;;;7391397;19;20607;-72
2023/03/24 05:22:48;;;;;;;0.80;0.70;;;15.70;99.90;;;;;;7391627;19;20170;-72
2023/03/24 05:25:15;;;;;;;1.20;0.90;;;16.00;99.90;;;;;;7387975;19;20213;-72
2023/03/24 05:27:42;;;;;;;2.78;1.00;;;16.00;99.90;;;;;;7392076;19;20139;-72
2023/03/24 05:30:10;;;;;;;1.60;1.00;;;16.10;99.90;;;;;;7389875;19;20192;-72
2023/03/24 05:32:36;;;;;;;2.80;1.10;;;16.20;99.90;;;;;;7388822;19;20135;-72
2023/03/24 05:35:02;;;;;;;4.43;1.02;;;16.20;99.90;;;;;;7389660;19;20134;-72
2023/03/24 05:37:28;;;;;;;1.33;1.08;;;16.30;99.90;;;;;;7390068;19;20139;-72
2023/03/24 05:39:54;;;;;;;2.20;1.15;;;16.10;99.90;;;;;;7388892;19;20246;-72
2023/03/24 05:42:20;;;;;;;1.10;1.00;;;16.10;99.90;;;;;;7388777;19;20320;-72
2023/03/24 05:44:46;;;;;;;2.05;1.15;;;16.00;99.90;;;;;;7390127;19;20147;-72
2023/03/24 05:47:14;;;;;;;1.42;1.33;;;15.90;99.90;;;;;;7389509;19;20174;-72
2023/03/24 05:49:44;;;;;;;1.23;1.10;;;15.70;99.90;;;;;;7388513;19;20145;-71
2023/03/24 05:52:11;;;;;;;1.88;1.30;;;15.60;99.90;;;;;;7388537;19;20215;-73
2023/03/24 05:54:38;;;;;;;3.30;1.63;;;15.70;99.90;;;;;;7387307;19;20162;-71
2023/03/24 05:57:08;;;;;;;3.28;1.45;;;15.80;99.90;;;;;;7388760;19;20165;-72
2023/03/24 05:59:34;;;;;;;3.55;1.98;;;15.90;99.90;;;;;;7389254;19;20122;-72
2023/03/24 06:02:01;;;;;;;3.83;1.52;;;15.80;99.90;;;;;;7386672;19;20568;-71
2023/03/24 06:04:30;;;;;;;2.20;1.60;;;15.80;99.90;;;;;;7388180;19;20180;-73
2023/03/24 06:06:57;;;;;;;3.67;1.27;;;15.70;99.90;;;;;;7389889;19;20146;-71
2023/03/24 06:09:28;;;;;;;2.10;1.30;;;15.80;99.90;;;;;;7389244;19;20166;-71
2023/03/24 06:11:55;;;;;;;4.70;1.67;;;15.80;99.90;;;;;;7388361;19;20131;-71
2023/03/24 06:14:20;;;;;;;3.85;1.27;;;15.70;99.90;;;;;;7387208;19;20145;-71
2023/03/24 06:16:49;;;;;;;3.95;1.58;;;15.60;99.90;;;;;;7386966;19;20237;-71
2023/03/24 06:19:16;;;;;;;2.72;1.20;;;15.60;99.90;;;;;;7387916;19;20131;-73
2023/03/24 06:21:43;;;;;;;1.80;1.38;;;15.60;99.90;;;;;;7388491;19;20217;-72
2023/03/24 06:24:13;;;;;;;2.95;1.50;;;15.60;99.90;;;;;;7388371;19;20171;-72
2023/03/24 06:26:41;;;;;;;2.40;1.15;;;15.70;99.90;;;;;;7386039;19;20233;-72
2023/03/24 06:29:07;;;;;;;2.63;1.55;;;15.70;99.90;;;;;;7385192;19;20154;-72
2023/03/24 06:31:34;;;;;;;2.83;1.20;;;15.70;99.90;;;;;;7383505;19;20149;-73
2023/03/24 06:34:00;;;;;;;3.10;1.80;;;15.70;99.90;;;;;;7384567;19;20142;-73
2023/03/24 06:36:26;;;;;;;1.75;1.23;;;15.70;99.90;;;;;;7384860;19;20154;-73
2023/03/24 06:38:52;;;;;;;1.70;1.40;;;15.70;99.90;;;;;;7386313;19;20146;-72
2023/03/24 06:41:18;;;;;;;1.30;1.20;;;15.60;99.90;;;;;;7385205;19;20146;-73
2023/03/24 06:43:43;;;;;;;2.75;1.60;;;15.60;99.90;;;;;;7387655;19;20138;-72
2023/03/24 06:46:09;;;;;;;1.80;1.30;;;15.60;99.90;;;;;;7385959;19;20142;-72
2023/03/24 06:48:35;;;;;;;1.98;1.27;;;15.50;99.90;;;;;;7385677;19;20142;-72
2023/03/24 06:51:01;;;;;;;1.40;1.30;;;15.40;99.90;;;;;;7385323;19;20150;-73
2023/03/24 06:53:27;;;;;;;1.75;1.42;;;15.50;99.90;;;;;;7386565;19;20213;-72
2023/03/24 06:55:53;;;;;;;1.55;1.20;;;15.60;99.90;;;;;;7384918;19;20561;-72
2023/03/24 06:58:21;;;;;;;2.80;1.50;;;15.50;99.90;;;;;;7385943;19;20150;-72
2023/03/24 07:00:47;;;;;;;1.67;1.30;;;15.40;99.90;;;;;;7384793;19;20146;-72
2023/03/24 07:03:16;;;;;;;1.83;1.30;;;15.40;99.90;;;;;;7384951;19;20142;-72
2023/03/24 07:05:44;;;;;;;2.13;1.60;;;15.30;99.90;;;;;;7383296;19;20138;-71
2023/03/24 07:08:12;;;;;;;1.92;1.60;;;15.20;99.90;;;;;;7385228;19;20154;-73
2023/03/24 07:10:41;;;;;;;2.50;1.77;;;15.50;99.90;;;;;;7384512;19;20149;-73
2023/03/24 07:13:08;;;;;;;2.40;1.60;;;15.30;99.90;;;;;;7383950;19;20134;-74
2023/03/24 07:15:34;;;;;;;2.45;1.60;;;15.40;99.90;;;;;;7387089;19;20147;-73
2023/03/24 07:18:00;;;;;;;2.50;1.63;;;15.40;99.90;;;;;;7387708;19;20141;-73
2023/03/24 07:20:26;;;;;;;3.35;1.55;;;15.50;99.90;;;;;;7385508;19;20238;-73
2023/03/24 07:22:56;;;;;;;2.28;1.67;;;15.40;99.90;;;;;;7385846;19;20602;-72
2023/03/24 07:25:22;;;;;;;3.08;2.03;;;15.40;99.90;;;;;;7379937;19;20150;-72
2023/03/24 07:27:52;;;;;;;2.35;1.30;;;15.40;99.90;;;;;;7383282;19;20138;-71
2023/03/24 07:30:17;;;;;;;3.55;1.65;;;15.00;99.90;;;;;;7388005;19;20134;-72
2023/03/24 07:32:43;;;;;;;4.30;1.85;;;15.00;99.90;;;;;;7385269;19;20151;-72
2023/03/24 07:35:11;;;;;;;2.63;1.58;;;15.00;99.90;;;;;;7388152;19;20218;-72
2023/03/24 07:37:37;;;;;;;2.20;1.70;;;15.10;99.90;;;;;;7385971;19;20149;-71
2023/03/24 07:40:10;;;;;;;2.38;2.00;;;15.10;99.90;;;;;;7385890;19;20259;-71
2023/03/24 07:42:40;;;;;;;3.40;1.80;;;15.10;99.90;;;;;;7386296;19;20165;-71
2023/03/24 07:45:11;;;;;;;4.50;2.10;;;15.10;99.90;;;;;;7385322;19;20218;-71
2023/03/24 07:47:37;;;;;;;2.22;1.70;;;15.10;99.90;;;;;;7383882;19;20154;-71
2023/03/24 07:50:08;;;;;;;5.40;3.47;;;15.00;99.90;;;;;;7386712;19;20150;-72
2023/03/24 07:52:39;;;;;;;2.65;1.70;;;15.10;99.90;;;;;;7384407;19;20465;-72
2023/03/24 07:55:09;;;;;;;4.55;2.83;;;15.10;99.90;;;;;;7383056;19;20134;-72
2023/03/24 07:57:36;;;;;;;4.78;2.42;;;15.00;99.90;;;;;;7385004;19;20500;-72
2023/03/24 08:00:16;;;;;;;6.00;2.20;;;15.10;99.90;;;;;;7387422;19;20234;-72
2023/03/24 08:02:44;;;;;;;3.80;3.10;;;15.10;99.90;;;;;;7383970;19;20144;-71
2023/03/24 08:05:13;;;;;;;3.88;2.85;;;15.20;99.90;;;;;;7383405;19;20158;-72
2023/03/24 08:07:54;;;;;;;5.45;2.47;;;15.00;99.90;;;;;;7391287;19;20146;-72
2023/03/24 08:10:30;;;;;;;5.97;3.30;;;15.00;99.90;;;;;;7393163;19;20135;-71
2023/03/24 08:12:56;;;;;;;3.88;2.03;;;15.10;99.90;;;;;;7393429;19;20157;-72
2023/03/24 08:15:23;;;;;;;3.33;1.95;;;15.10;99.90;;;;;;7394001;19;20135;-72
2023/03/24 08:17:50;;;;;;;4.55;2.10;;;15.10;99.90;;;;;;7395113;19;20161;-71
2023/03/24 08:20:18;;;;;;;2.42;1.90;;;15.10;99.90;;;;;;7393242;19;20144;-72
2023/03/24 08:22:48;;;;;;;2.33;1.80;;;15.10;99.90;;;;;;7393548;19;20430;-71
2023/03/24 08:25:17;;;;;;;2.53;1.75;;;15.00;99.90;;;;;;7392561;19;20641;-72
2023/03/24 08:27:43;;;;;;;2.40;1.92;;;15.20;99.90;;;;;;7393108;19;20154;-72
2023/03/24 08:30:12;;;;;;;3.25;2.08;;;15.30;99.90;;;;;;7393720;19;20159;-71
2023/03/24 08:32:44;;;;;;;2.47;1.73;;;15.10;99.90;;;;;;7392837;19;20146;-72
2023/03/24 08:35:19;;;;;;;4.78;3.25;;;14.90;99.90;;;;;;7395363;19;20148;-71
2023/03/24 08:37:45;;;;;;;7.07;4.72;;;15.00;99.90;;;;;;7393365;19;20138;-72
2023/03/24 08:40:17;;;;;;;3.00;2.03;;;15.10;99.90;;;;;;7392275;19;20142;-72
2023/03/24 08:42:43;;;;;;;1.65;1.55;;;15.00;99.90;;;;;;7392288;19;20150;-72
2023/03/24 08:45:11;;;;;;;2.60;1.80;;;14.80;99.90;;;;;;7392658;19;20160;-71
2023/03/24 08:47:38;;;;;;;1.77;1.50;;;15.00;99.90;;;;;;7392941;19;20206;-73
2023/03/24 08:50:09;;;;;;;3.70;2.58;;;15.00;99.90;;;;;;7392836;19;20142;-72
2023/03/24 08:52:35;;;;;;;3.15;1.80;;;15.00;99.90;;;;;;7390512;19;20230;-72
2023/03/24 08:55:01;;;;;;;6.63;2.13;;;15.10;99.90;;;;;;7391306;19;20163;-72
2023/03/24 08:57:27;;;;;;;3.45;1.92;;;15.20;99.90;;;;;;7393232;19;20138;-71
2023/03/24 08:59:53;;;;;;;3.03;1.67;;;15.40;99.90;;;;;;7391621;19;20611;-71
2023/03/24 09:02:19;;;;;;;2.28;1.63;;;15.40;99.90;;;;;;7390106;19;20142;-71
2023/03/24 09:04:45;;;;;;;2.00;1.63;;;15.60;99.90;;;;;;7389625;19;20160;-71
2023/03/24 09:07:11;;;;;;;2.13;1.50;;;15.40;99.90;;;;;;7389795;19;20144;-70
2023/03/24 09:09:38;;;;;;;2.75;1.45;;;15.40;99.90;;;;;;7391301;19;20146;-72
2023/03/24 09:12:04;;;;;;;1.88;1.70;;;15.40;99.90;;;;;;7390773;19;20163;-71
2023/03/24 09:14:30;;;;;;;2.50;1.63;;;15.40;99.90;;;;;;7391624;19;20149;-72
2023/03/24 09:16:56;;;;;;;2.20;1.90;;;15.50;99.90;;;;;;7390893;19;20130;-72
2023/03/24 09:19:22;;;;;;;1.75;1.52;;;15.40;99.90;;;;;;7391838;19;20131;-71
2023/03/24 09:21:48;;;;;;;1.92;1.38;;;15.50;99.90;;;;;;7390356;19;20487;-72
2023/03/24 09:24:14;;;;;;;2.08;1.33;;;15.50;99.90;;;;;;7388264;19;20154;-74
2023/03/24 09:26:40;;;;;;;1.65;1.27;;;15.50;99.90;;;;;;7391601;19;20138;-73
2023/03/24 09:29:06;;;;;;;1.92;1.20;;;15.70;99.90;;;;;;7390166;19;20169;-71
2023/03/24 09:31:32;;;;;;;2.45;1.38;;;15.80;99.90;;;;;;7390516;19;20918;-75
2023/03/24 09:33:59;;;;;;;5.32;3.42;;;15.90;99.90;;;;;;7389735;19;20218;-72
2023/03/24 09:36:25;;;;;;;3.03;2.00;;;15.80;99.90;;;;;;7389948;19;20527;-72
2023/03/24 09:38:51;;;;;;;2.63;2.05;;;15.70;99.90;;;;;;7392175;19;20447;-72
2023/03/24 09:41:24;;;;;;;1.30;1.20;;;15.70;99.90;;;;;;7389554;19;20160;-72
2023/03/24 09:43:55;;;;;;;1.10;0.93;;;15.90;99.90;;;;;;7390303;19;20170;-71
2023/03/24 09:46:40;;;;;;;3.00;1.83;;;15.70;99.90;;;;;;7388884;19;20139;-71
2023/03/24 09:49:12;;;;;;;2.25;1.73;;;15.80;99.90;;;;;;7389682;19;20194;-72
2023/03/24 09:51:42;;;;;;;1.52;1.40;;;16.00;99.90;;;;;;7390469;19;20150;-73
2023/03/24 09:54:35;;;;;;;1.52;1.40;;;16.10;99.90;;;;;;7389128;19;20146;-72
2023/03/24 09:57:02;;;;;;;2.60;1.88;;;16.30;99.90;;;;;;7389178;19;20142;-72
2023/03/24 09:59:36;;;;;;;4.90;2.97;;;16.20;99.90;;;;;;7390488;19;20131;-72
2023/03/24 10:02:14;;;;;;;1.92;1.55;;;16.40;99.90;;;;;;7387957;19;20576;-72
2023/03/24 10:04:41;;;;;;;2.00;1.70;;;16.40;99.90;;;;;;7387509;19;21090;-72
2023/03/24 10:07:17;;;;;;;4.15;3.63;;;16.70;99.90;;;;;;7390506;19;20134;-72
2023/03/24 10:09:48;;;;;;;4.82;1.90;;;16.70;99.90;;;;;;7391385;19;20171;-72
2023/03/24 10:12:27;;;;;;;1.83;1.50;;;16.90;99.90;;;;;;7387746;19;20236;-72
2023/03/24 10:15:08;;;;;;;1.75;1.33;;;17.20;99.90;;;;;;7389816;19;20123;-72
2023/03/24 10:17:58;;;;;;;1.48;1.30;;;17.40;99.90;;;;;;7389360;19;20141;-73
2023/03/24 10:20:48;;;;;;;4.00;1.23;;;17.60;99.90;;;;;;7390150;19;20210;-72
2023/03/24 10:23:38;;;;;;;2.53;1.55;;;17.60;99.90;;;;;;7387355;19;20180;-72
2023/03/24 10:26:45;;;;;;;3.20;1.10;;;17.30;99.90;;;;;;7385974;19;20145;-72
2023/03/24 10:29:22;;;;;;;2.45;1.02;;;17.20;99.90;;;;;;7386523;19;20135;-72
2023/03/24 10:31:59;;;;;;;1.48;1.00;;;17.10;99.90;;;;;;7389220;19;20139;-72
2023/03/24 10:34:29;;;;;;;2.40;1.20;;;17.10;99.90;;;;;;7388997;19;20892;-72
2023/03/24 10:36:57;;;;;;;1.38;1.10;;;17.20;99.90;;;;;;7388500;19;20158;-72
2023/03/24 10:39:25;;;;;;;2.28;1.00;;;17.20;99.90;;;;;;7389219;19;20623;-73
2023/03/24 10:41:53;;;;;;;0.88;0.80;;;17.30;99.90;;;;;;7386808;19;20151;-73
2023/03/24 10:44:20;;;;;;;1.13;0.95;;;17.10;99.90;;;;;;7387189;19;20303;-73
2023/03/24 10:46:52;;;;;;;0.77;0.70;;;17.10;99.90;;;;;;7389603;19;20619;-74
2023/03/24 10:49:21;;;;;;;0.95;0.85;;;17.10;99.90;;;;;;7386392;19;20131;-73
2023/03/24 10:52:02;;;;;;;0.60;0.60;;;17.20;99.90;;;;;;7389051;19;20146;-71
2023/03/24 10:54:29;;;;;;;1.15;0.80;;;17.20;99.90;;;;;;7386947;19;20534;-72
2023/03/24 10:57:02;;;;;;;1.83;0.82;;;17.10;99.90;;;;;;7386792;19;20154;-72
2023/03/24 10:59:35;;;;;;;4.05;0.90;;;17.40;99.90;;;;;;7388344;19;20142;-72
2023/03/24 11:02:01;;;;;;;0.88;0.85;;;17.50;99.90;;;;;;7388086;19;20154;-74
2023/03/24 11:04:29;;;;;;;0.88;0.80;;;17.50;99.90;;;;;;7387073;19;20292;-72
2023/03/24 11:07:15;;;;;;;0.85;0.80;;;17.40;99.90;;;;;;7387408;19;20142;-72
2023/03/24 11:09:45;;;;;;;1.60;0.85;;;17.30;99.90;;;;;;7387724;19;20175;-72
2023/03/24 11:12:22;;;;;;;1.77;0.90;;;17.30;99.90;;;;;;7385190;19;20131;-71
2023/03/24 11:14:48;;;;;;;1.42;0.60;;;17.30;99.90;;;;;;7387679;19;20150;-72
2023/03/24 11:17:14;;;;;;;1.17;0.70;;;17.40;99.90;;;;;;7386642;19;20571;-71
2023/03/24 11:19:51;;;;;;;1.63;0.90;;;17.50;99.90;;;;;;7386473;19;20591;-71
2023/03/24 11:22:17;;;;;;;1.35;1.20;;;17.40;99.90;;;;;;7387929;19;20413;-72
2023/03/24 11:24:50;;;;;;;1.95;0.63;;;17.60;99.90;;;;;;7384563;19;20166;-71
2023/03/24 11:27:17;;;;;;;4.68;0.80;;;17.30;99.90;;;;;;7385121;19;20147;-73
2023/03/24 11:29:50;;;;;;;0.65;0.65;;;17.50;99.90;;;;;;7387075;19;20138;-72
2023/03/24 11:32:25;;;;;;;1.52;0.85;;;17.60;99.90;;;;;;7383987;19;20160;-72
2023/03/24 11:35:02;;;;;;;0.82;0.82;;;17.50;99.90;;;;;;7384939;19;20154;-71
2023/03/24 11:37:32;;;;;;;2.22;0.88;;;17.50;99.90;;;;;;7387208;19;20138;-72
2023/03/24 11:40:24;;;;;;;1.38;0.80;;;17.60;99.90;;;;;;7386240;19;20135;-73
2023/03/24 11:42:59;;;;;;;1.23;0.50;;;17.90;99.90;;;;;;7393559;19;20494;-73
2023/03/24 11:45:39;;;;;;;1.45;1.00;;;17.90;99.90;;;;;;7391508;19;20217;-72
2023/03/24 11:48:30;;;;;;;1.15;0.70;;;17.90;99.90;;;;;;7392738;19;20516;-72
2023/03/24 11:50:57;;;;;;;1.15;0.73;;;17.90;99.90;;;;;;7393184;19;20226;-71
2023/03/24 11:53:30;;;;;;;0.63;0.60;;;17.60;99.90;;;;;;7392507;19;20174;-74
2023/03/24 11:56:07;;;;;;;0.95;0.88;;;17.60;99.90;;;;;;7392969;19;20146;-72
2023/03/24 11:58:43;;;;;;;4.63;0.98;;;17.60;99.90;;;;;;7394347;19;20205;-73
2023/03/24 12:01:19;;;;;;;1.23;0.70;;;17.60;99.90;;;;;;7394717;19;20155;-70
2023/03/24 12:03:54;;;;;;;0.77;0.63;;;17.60;99.90;;;;;;7392435;19;20186;-72
2023/03/24 12:06:54;;;;;;;0.98;0.60;;;17.70;99.90;;;;;;7391969;19;20142;-73
2023/03/24 12:09:31;;;;;;;1.23;0.70;;;17.50;99.90;;;;;;7393736;19;20151;-71
2023/03/24 12:12:19;;;;;;;0.50;0.50;;;17.40;99.90;;;;;;7392612;19;20777;-71
2023/03/24 12:15:22;;;;;;;0.77;0.50;;;17.50;99.90;;;;;;7393743;19;20149;-70
2023/03/24 12:18:03;;;;;;;1.10;0.60;;;17.40;99.90;;;;;;7393664;19;20217;-71
2023/03/24 12:20:58;;;;;;;0.93;0.60;;;17.60;99.90;;;;;;7391647;19;20159;-72
2023/03/24 12:23:51;;;;;;;0.55;0.55;;;17.50;99.90;;;;;;7390820;19;20138;-71
2023/03/24 12:26:22;;;;;;;0.30;0.30;;;17.40;99.90;;;;;;7389481;19;20155;-72
2023/03/24 12:29:00;;;;;;;0.70;0.43;;;17.40;99.90;;;;;;7392123;19;20150;-72
2023/03/24 12:31:47;;;;;;;0.38;0.38;;;17.30;99.90;;;;;;7393001;19;20138;-72
2023/03/24 12:34:38;;;;;;;0.77;0.70;;;17.30;99.90;;;;;;7393821;19;20150;-72
2023/03/24 12:37:12;;;;;;;0.95;0.70;;;17.60;99.90;;;;;;7394511;19;20135;-72
2023/03/24 12:39:56;;;;;;;0.60;0.60;;;17.70;99.90;;;;;;7392920;19;20133;-72
2023/03/24 12:42:23;;;;;;;0.50;0.50;;;17.40;99.90;;;;;;7391955;19;20143;-72
2023/03/24 12:45:25;;;;;;;1.13;0.50;;;17.40;99.90;;;;;;7389560;19;20134;-72
2023/03/24 12:48:05;;;;;;;0.75;0.50;;;17.20;99.90;;;;;;7391326;19;20623;-71
2023/03/24 12:50:42;;;;;;;0.30;0.30;;;17.30;99.90;;;;;;7391300;19;20233;-72
2023/03/24 12:53:21;;;;;;;0.50;0.50;;;17.50;99.90;;;;;;7392094;19;20143;-72
2023/03/24 12:55:56;;;;;;;2.42;1.95;;;17.30;99.90;;;;;;7393110;19;20135;-72
2023/03/24 12:58:43;;;;;;;0.98;0.73;;;17.10;99.90;;;;;;7391226;19;20142;-72
2023/03/24 13:01:42;;;;;;;6.57;4.53;;;17.10;99.90;;;;;;7390486;19;20167;-72
2023/03/24 13:04:15;;;;;;;0.50;0.50;;;17.00;99.90;;;;;;7382452;19;20245;-72
2023/03/24 13:06:44;;;;;;;1.67;0.40;;;17.10;99.90;;;;;;7389109;19;20191;-71
2023/03/24 13:09:18;;;;;;;0.80;0.60;;;17.20;99.90;;;;;;7388872;19;20141;-73
2023/03/24 13:11:58;;;;;;;0.75;0.60;;;17.20;99.90;;;;;;7386783;19;20137;-74
2023/03/24 13:14:31;;;;;;;0.45;0.45;;;17.30;99.90;;;;;;7383883;19;20148;-73